Time;durP1;ratioP1;P1;durP2;ratioP2;P2;SDS_P1;SDS_P2;PMS_P1;PMS_P2;Temp;Humidity;BMP_temperature;BMP_pressure;BME280_temperature;BME280_humidity;BME280_pressure;Samples;Min_cycle;Max_cycle;Signal;HPM_P1;HPM_P2
2022/06/29 00:00:16;;;;;;;;;;;28.50;99.90;;;;;;5101096;28;19908;-68
2022/06/29 00:02:43;;;;;;;;;;;28.50;99.90;;;;;;5106161;28;19916;-67
2022/06/29 00:05:10;;;;;;;;;;;28.60;99.90;;;;;;5103659;28;19908;-67
2022/06/29 00:07:36;;;;;;;;;;;28.60;99.90;;;;;;5108178;28;19935;-68
2022/06/29 00:10:02;;;;;;;;;;;28.60;99.90;;;;;;5107313;28;20368;-68
2022/06/29 00:12:28;;;;;;;;;;;28.60;99.90;;;;;;5099275;28;19915;-68
2022/06/29 00:14:55;;;;;;;;;;;28.60;99.90;;;;;;5111961;28;19964;-69
2022/06/29 00:17:21;;;;;;;;;;;28.60;99.90;;;;;;5112217;28;19903;-68
2022/06/29 00:19:47;;;;;;;;;;;28.50;99.90;;;;;;5110822;28;19911;-68
2022/06/29 00:22:12;;;;;;;;;;;28.40;99.90;;;;;;5113317;28;19908;-67
2022/06/29 00:24:38;;;;;;;;;;;28.40;99.90;;;;;;5113727;28;19904;-68
2022/06/29 00:27:04;;;;;;;;;;;28.50;99.90;;;;;;5107777;28;19908;-69
2022/06/29 00:29:30;;;;;;;;;;;28.40;99.90;;;;;;5117133;28;19962;-68
2022/06/29 00:31:56;;;;;;;;;;;28.40;99.90;;;;;;5117499;28;19964;-68
2022/06/29 00:34:22;;;;;;;;;;;28.40;99.90;;;;;;5110071;28;19918;-68
2022/06/29 00:36:48;;;;;;;;;;;28.40;99.90;;;;;;5118964;28;19907;-68
2022/06/29 00:39:14;;;;;;;;;;;28.40;99.90;;;;;;5121004;28;20352;-68
2022/06/29 00:41:40;;;;;;;;;;;28.30;99.90;;;;;;5115801;28;19904;-68
2022/06/29 00:44:09;;;;;;;;;;;28.40;99.90;;;;;;5113618;28;20084;-70
2022/06/29 00:46:36;;;;;;;;;;;28.40;99.90;;;;;;5108875;28;20289;-68
2022/06/29 00:49:02;;;;;;;;;;;28.30;99.90;;;;;;5111711;28;19959;-69
2022/06/29 00:51:29;;;;;;;;;;;28.30;99.90;;;;;;5112999;28;19907;-69
2022/06/29 00:53:56;;;;;;;;;;;28.30;99.90;;;;;;5114440;28;19904;-70
2022/06/29 00:56:22;;;;;;;;;;;28.40;99.90;;;;;;5106672;28;19931;-70
2022/06/29 00:58:49;;;;;;;;;;;28.30;99.90;;;;;;5104158;28;19908;-69
2022/06/29 01:01:15;;;;;;;;;;;28.30;99.90;;;;;;5107259;28;19904;-69
2022/06/29 01:03:41;;;;;;;;;;;28.20;99.90;;;;;;5103245;28;20258;-69
2022/06/29 01:06:06;;;;;;;;;;;28.30;99.90;;;;;;5107740;28;19925;-67
2022/06/29 01:08:32;;;;;;;;;;;28.30;99.90;;;;;;5104286;28;19908;-69
2022/06/29 01:10:58;;;;;;;;;;;28.40;99.90;;;;;;5102290;28;20297;-69
2022/06/29 01:13:24;;;;;;;;;;;28.40;99.90;;;;;;5103860;28;19933;-69
2022/06/29 01:15:49;;;;;;;;;;;28.30;99.90;;;;;;5103025;28;20357;-69
2022/06/29 01:18:15;;;;;;;;;;;28.30;99.90;;;;;;5110358;28;19908;-69
2022/06/29 01:20:40;;;;;;;;;;;28.30;99.90;;;;;;5107049;28;19959;-67
2022/06/29 01:23:06;;;;;;;;;;;28.20;99.90;;;;;;5107850;28;19999;-69
2022/06/29 01:25:32;;;;;;;;;;;28.20;99.90;;;;;;5106561;28;20331;-68
2022/06/29 01:27:58;;;;;;;;;;;28.20;99.90;;;;;;5109812;28;19907;-68
2022/06/29 01:30:24;;;;;;;;;;;28.30;99.90;;;;;;5108100;28;20014;-70
2022/06/29 01:32:50;;;;;;;;;;;28.20;99.90;;;;;;5105827;28;20038;-69
2022/06/29 01:35:16;;;;;;;;;;;28.10;99.90;;;;;;5105370;28;19956;-68
2022/06/29 01:37:42;;;;;;;;;;;28.10;99.90;;;;;;5107198;28;19907;-67
2022/06/29 01:40:09;;;;;;;;;;;28.10;99.90;;;;;;5102253;28;19908;-69
2022/06/29 01:42:34;;;;;;;;;;;28.10;99.90;;;;;;5106785;28;20369;-69
2022/06/29 01:45:00;;;;;;;;;;;28.20;99.90;;;;;;5099092;28;19922;-68
2022/06/29 01:47:25;;;;;;;;;;;28.20;99.90;;;;;;5108508;28;19908;-69
2022/06/29 01:49:51;;;;;;;;;;;28.10;99.90;;;;;;5103024;28;19939;-68
2022/06/29 01:52:17;;;;;;;;;;;28.10;99.90;;;;;;5106128;28;19962;-68
2022/06/29 01:54:45;;;;;;;;;;;28.10;99.90;;;;;;5103977;28;19998;-69
2022/06/29 01:57:11;;;;;;;;;;;28.10;99.90;;;;;;5103494;28;19907;-68
2022/06/29 01:59:37;;;;;;;;;;;28.10;99.90;;;;;;5104588;28;19918;-69
2022/06/29 02:02:02;;;;;;;;;;;28.00;99.90;;;;;;5097096;28;19908;-69
2022/06/29 02:04:28;;;;;;;;;;;28.00;99.90;;;;;;5098602;28;20278;-68
2022/06/29 02:06:53;;;;;;;;;;;28.00;99.90;;;;;;5104973;28;19994;-68
2022/06/29 02:09:19;;;;;;;;;;;28.00;99.90;;;;;;5108890;28;20261;-69
2022/06/29 02:11:45;;;;;;;;;;;27.90;99.90;;;;;;5110701;28;20435;-68
2022/06/29 02:14:10;;;;;;;;;;;27.90;99.90;;;;;;5104744;28;19988;-68
2022/06/29 02:16:36;;;;;;;;;;;27.90;99.90;;;;;;5095740;28;19972;-68
2022/06/29 02:19:02;;;;;;;;;;;27.90;99.90;;;;;;5102979;28;19916;-68
2022/06/29 02:21:28;;;;;;;;;;;27.90;99.90;;;;;;5100471;28;19912;-68
2022/06/29 02:23:54;;;;;;;;;;;28.00;99.90;;;;;;5109894;28;19916;-68
2022/06/29 02:26:19;;;;;;;;;;;28.00;99.90;;;;;;5105749;28;19915;-68
2022/06/29 02:28:45;;;;;;;;;;;28.10;99.90;;;;;;5110002;28;19907;-67
2022/06/29 02:36:39;;;;;;;;;;;28.10;99.90;;;;;;5111911;28;19919;-68
2022/06/29 02:39:04;;;;;;;;;;;28.10;99.90;;;;;;5112812;28;19904;-69
2022/06/29 02:41:30;;;;;;;;;;;28.10;99.90;;;;;;5110692;28;19904;-68
2022/06/29 02:43:56;;;;;;;;;;;28.10;99.90;;;;;;5108568;28;19988;-68
2022/06/29 02:46:21;;;;;;;;;;;28.10;99.90;;;;;;5111747;28;19915;-67
2022/06/29 02:48:47;;;;;;;;;;;28.10;99.90;;;;;;5110732;28;20004;-67
2022/06/29 02:51:13;;;;;;;;;;;28.00;99.90;;;;;;5105761;28;20003;-68
2022/06/29 02:53:38;;;;;;;;;;;28.10;99.90;;;;;;5108348;28;19995;-69
2022/06/29 02:56:04;;;;;;;;;;;28.00;99.90;;;;;;5106437;28;19996;-69
2022/06/29 02:58:30;;;;;;;;;;;28.00;99.90;;;;;;5109826;28;19912;-69
2022/06/29 03:00:56;;;;;;;;;;;28.00;99.90;;;;;;5111478;28;19911;-69
2022/06/29 03:03:21;;;;;;;;;;;27.90;99.90;;;;;;5115179;27;19989;-67
2022/06/29 03:05:47;;;;;;;;;;;27.90;99.90;;;;;;5116432;27;20289;-68
2022/06/29 03:08:13;;;;;;;;;;;27.80;99.90;;;;;;5106338;28;20353;-67
2022/06/29 03:10:39;;;;;;;;;;;27.80;99.90;;;;;;5114131;28;19908;-68
2022/06/29 03:13:05;;;;;;;;;;;27.80;99.90;;;;;;5115840;28;19911;-68
2022/06/29 03:15:31;;;;;;;;;;;27.80;99.90;;;;;;5119938;27;19903;-68
2022/06/29 03:17:57;;;;;;;;;;;27.80;99.90;;;;;;5107961;27;20315;-68
2022/06/29 03:20:23;;;;;;;;;;;27.80;99.90;;;;;;5094854;28;19904;-68
2022/06/29 03:22:49;;;;;;;;;;;27.80;99.90;;;;;;5093483;28;19904;-68
2022/06/29 03:25:18;;;;;;;;;;;27.80;99.90;;;;;;5097341;28;20445;-67
2022/06/29 03:27:44;;;;;;;;;;;27.70;99.90;;;;;;5114607;28;19907;-69
2022/06/29 03:30:10;;;;;;;;;;;27.80;99.90;;;;;;5110977;28;20392;-69
2022/06/29 03:32:36;;;;;;;;;;;27.80;99.90;;;;;;5112124;28;20040;-68
2022/06/29 03:35:02;;;;;;;;;;;27.90;99.90;;;;;;5113705;28;19943;-67
2022/06/29 03:37:28;;;;;;;;;;;27.80;99.90;;;;;;5108563;28;19930;-69
2022/06/29 03:39:54;;;;;;;;;;;27.90;99.90;;;;;;5113867;28;19908;-68
2022/06/29 03:42:20;;;;;;;;;;;27.90;99.90;;;;;;5106936;28;20373;-69
2022/06/29 03:44:45;;;;;;;;;;;27.90;99.90;;;;;;5099037;28;19915;-69
2022/06/29 03:47:11;;;;;;;;;;;27.90;99.90;;;;;;5103294;28;19908;-67
2022/06/29 03:49:37;;;;;;;;;;;27.90;99.90;;;;;;5109712;28;19911;-66
2022/06/29 03:52:03;;;;;;;;;;;27.90;99.90;;;;;;5108559;28;19998;-68
2022/06/29 03:54:28;;;;;;;;;;;27.80;99.90;;;;;;5103566;28;19911;-69
2022/06/29 03:56:54;;;;;;;;;;;27.90;99.90;;;;;;5107517;28;19941;-68
2022/06/29 03:59:20;;;;;;;;;;;27.90;99.90;;;;;;5110275;28;19908;-69
2022/06/29 04:01:46;;;;;;;;;;;27.90;99.90;;;;;;5105055;28;20244;-69
2022/06/29 04:04:12;;;;;;;;;;;27.90;99.90;;;;;;5109558;28;19953;-68
2022/06/29 04:06:38;;;;;;;;;;;27.90;99.90;;;;;;5099449;28;19911;-69
2022/06/29 04:09:03;;;;;;;;;;;28.00;99.90;;;;;;5104071;28;19965;-69
2022/06/29 04:12:02;;;;;;;;;;;28.00;99.90;;;;;;5109887;28;20349;-69
2022/06/29 04:14:22;;;;;;;;;;;28.00;99.90;;;;;;5103642;28;19916;-69
2022/06/29 04:16:49;;;;;;;;;;;28.00;99.90;;;;;;5100072;28;20273;-71
2022/06/29 04:19:14;;;;;;;;;;;27.90;99.90;;;;;;5107827;28;19914;-71
2022/06/29 04:21:40;;;;;;;;;;;27.90;99.90;;;;;;5105021;28;19986;-70
2022/06/29 04:24:06;;;;;;;;;;;27.90;99.90;;;;;;5102533;28;19908;-71
2022/06/29 04:26:32;;;;;;;;;;;27.90;99.90;;;;;;5106958;28;20365;-71
2022/06/29 04:28:57;;;;;;;;;;;27.90;99.90;;;;;;5104990;28;19964;-71
2022/06/29 04:31:23;;;;;;;;;;;27.90;99.90;;;;;;5106487;28;19907;-71
2022/06/29 04:33:49;;;;;;;;;;;27.90;99.90;;;;;;5101819;28;19915;-71
2022/06/29 04:36:14;;;;;;;;;;;28.00;99.90;;;;;;5107776;28;20284;-70
2022/06/29 04:38:40;;;;;;;;;;;27.90;99.90;;;;;;5108583;28;19912;-70
2022/06/29 04:41:06;;;;;;;;;;;27.90;99.90;;;;;;5106020;28;19911;-70
2022/06/29 04:43:31;;;;;;;;;;;28.00;99.90;;;;;;5105971;28;19916;-70
2022/06/29 04:48:42;;;;;;;;;;;28.00;99.90;;;;;;5107882;28;20445;-71
2022/06/29 04:51:08;;;;;;;;;;;28.00;99.90;;;;;;5109702;28;19912;-71
2022/06/29 04:53:34;;;;;;;;;;;28.00;99.90;;;;;;5107871;28;19907;-71
2022/06/29 04:55:59;;;;;;;;;;;27.90;99.90;;;;;;5107721;28;20269;-71
2022/06/29 04:58:25;;;;;;;;;;;27.90;99.90;;;;;;5105802;28;19915;-71
2022/06/29 05:00:51;;;;;;;;;;;27.90;99.90;;;;;;5110195;27;19908;-70
2022/06/29 05:03:17;;;;;;;;;;;27.90;99.90;;;;;;5120314;27;19986;-72
2022/06/29 05:05:43;;;;;;;;;;;28.00;99.90;;;;;;5110377;28;20361;-70
2022/06/29 05:08:08;;;;;;;;;;;28.10;99.90;;;;;;5118542;27;19929;-70
2022/06/29 05:10:35;;;;;;;;;;;28.20;99.90;;;;;;5111414;28;19914;-70
2022/06/29 05:13:00;;;;;;;;;;;28.20;99.90;;;;;;5110121;28;19914;-71
2022/06/29 05:15:26;;;;;;;;;;;28.20;99.90;;;;;;5109849;28;20357;-70
2022/06/29 05:17:52;;;;;;;;;;;28.20;99.90;;;;;;5109504;28;20786;-70
2022/06/29 05:20:20;;;;;;;;;;;28.20;99.90;;;;;;5110606;28;19987;-70
2022/06/29 05:22:46;;;;;;;;;;;28.30;99.90;;;;;;5110091;28;19904;-70
2022/06/29 05:25:11;;;;;;;;;;;28.40;99.90;;;;;;5103043;28;19912;-70
2022/06/29 05:27:37;;;;;;;;;;;28.50;99.90;;;;;;5104278;28;20333;-69
2022/06/29 05:30:03;;;;;;;;;;;28.70;99.90;;;;;;5104258;28;19937;-70
2022/06/29 05:32:29;;;;;;;;;;;28.80;99.90;;;;;;5107792;28;19908;-71
2022/06/29 05:34:54;;;;;;;;;;;28.80;99.90;;;;;;5108046;28;19919;-69
2022/06/29 05:37:20;;;;;;;;;;;28.90;99.90;;;;;;5107457;28;19914;-66
2022/06/29 05:39:46;;;;;;;;;;;29.00;99.90;;;;;;5107561;28;20065;-68
2022/06/29 05:42:14;;;;;;;;;;;28.90;99.90;;;;;;5102941;28;19943;-67
2022/06/29 05:44:40;;;;;;;;;;;28.90;99.90;;;;;;5105151;28;19907;-67
2022/06/29 05:47:07;;;;;;;;;;;29.10;99.90;;;;;;5108201;28;19908;-67
2022/06/29 05:49:45;;;;;;;;;;;29.30;99.90;;;;;;5099944;28;20797;-70
2022/06/29 05:52:25;;;;;;;;;;;29.60;99.90;;;;;;5105318;28;19916;-67
2022/06/29 05:54:57;;;;;;;;;;;29.90;99.90;;;;;;5106410;28;19915;-68
2022/06/29 05:57:26;;;;;;;;;;;30.10;99.90;;;;;;5105481;28;20398;-68
2022/06/29 06:00:03;;;;;;;;;;;30.10;99.90;;;;;;5117300;28;19915;-69
2022/06/29 06:02:42;;;;;;;;;;;30.10;99.90;;;;;;5118094;28;20353;-68
2022/06/29 06:05:22;;;;;;;;;;;30.20;99.90;;;;;;5112815;28;19908;-67
2022/06/29 06:08:02;;;;;;;;;;;30.30;99.90;;;;;;5106176;27;19915;-68
2022/06/29 06:10:37;;;;;;;;;;;30.50;99.90;;;;;;5114098;28;19912;-68
2022/06/29 06:13:05;;;;;;;;;;;30.40;99.90;;;;;;5109425;28;21621;-67
2022/06/29 06:15:32;;;;;;;;;;;30.40;99.90;;;;;;5117479;27;21119;-68
2022/06/29 06:17:58;;;;;;;;;;;30.10;99.90;;;;;;5110468;28;19908;-67
2022/06/29 06:20:23;;;;;;;;;;;30.00;99.90;;;;;;5107000;28;19915;-68
2022/06/29 06:22:49;;;;;;;;;;;30.30;99.90;;;;;;5119913;27;19912;-68
2022/06/29 06:25:15;;;;;;;;;;;30.40;99.90;;;;;;5115213;27;19907;-68
2022/06/29 06:27:41;;;;;;;;;;;30.30;99.90;;;;;;5117347;28;19977;-69
2022/06/29 06:30:06;;;;;;;;;;;30.60;99.90;;;;;;5117470;28;20286;-68
2022/06/29 06:32:32;;;;;;;;;;;30.80;99.90;;;;;;5113664;28;19958;-67
2022/06/29 06:34:58;;;;;;;;;;;31.20;99.90;;;;;;5112534;28;19912;-69
2022/06/29 06:37:23;;;;;;;;;;;31.20;99.90;;;;;;5116121;28;19912;-69
2022/06/29 06:42:33;;;;;;;;;;;31.30;99.90;;;;;;5107195;28;19960;-67
2022/06/29 06:45:00;;;;;;;;;;;31.30;99.90;;;;;;5117244;28;19989;-69
2022/06/29 06:47:25;;;;;;;;;;;31.10;99.90;;;;;;5120560;28;19903;-68
2022/06/29 06:49:51;;;;;;;;;;;31.20;99.90;;;;;;5111748;28;19947;-68
2022/06/29 06:52:17;;;;;;;;;;;31.30;99.90;;;;;;5117432;28;19908;-67
2022/06/29 06:54:44;;;;;;;;;;;31.30;99.90;;;;;;5115173;28;19915;-66
2022/06/29 06:57:11;;;;;;;;;;;31.10;99.90;;;;;;5120140;28;19999;-67
2022/06/29 06:59:37;;;;;;;;;;;31.10;99.90;;;;;;5120107;27;19952;-67
2022/06/29 07:02:02;;;;;;;;;;;31.10;99.90;;;;;;5119119;27;19908;-68
2022/06/29 07:04:28;;;;;;;;;;;31.10;99.90;;;;;;5110506;28;20720;-64
2022/06/29 07:06:53;;;;;;;;;;;30.80;99.90;;;;;;5114178;28;19915;-64
2022/06/29 07:09:19;;;;;;;;;;;30.50;99.90;;;;;;5109018;27;19915;-64
2022/06/29 07:11:45;;;;;;;;;;;30.60;99.90;;;;;;5111908;28;20028;-64
2022/06/29 07:14:10;;;;;;;;;;;30.70;99.90;;;;;;5112218;27;19923;-64
2022/06/29 07:16:36;;;;;;;;;;;30.60;99.90;;;;;;5111698;28;19915;-66
2022/06/29 07:19:02;;;;;;;;;;;30.60;99.90;;;;;;5113327;28;19986;-65
2022/06/29 07:21:27;;;;;;;;;;;30.50;99.90;;;;;;5112257;28;20289;-66
2022/06/29 07:23:58;;;;;;;;;;;30.50;99.90;;;;;;5113836;28;19923;-64
2022/06/29 07:26:26;;;;;;;;;;;30.40;99.90;;;;;;5111026;28;19918;-65
2022/06/29 07:28:52;;;;;;;;;;;30.40;99.90;;;;;;5112925;28;19983;-66
2022/06/29 07:31:18;;;;;;;;;;;30.20;99.90;;;;;;5113129;28;19948;-66
2022/06/29 07:33:44;;;;;;;;;;;30.30;99.90;;;;;;5113246;28;19915;-66
2022/06/29 07:36:09;;;;;;;;;;;30.40;99.90;;;;;;5111318;28;19911;-66
2022/06/29 07:38:35;;;;;;;;;;;30.50;99.90;;;;;;5109989;28;19941;-65
2022/06/29 07:41:01;;;;;;;;;;;30.40;99.90;;;;;;5103080;28;20247;-64
2022/06/29 07:43:27;;;;;;;;;;;30.20;99.90;;;;;;5111757;28;19908;-64
2022/06/29 07:45:52;;;;;;;;;;;30.10;99.90;;;;;;5112027;28;19923;-65
2022/06/29 07:48:18;;;;;;;;;;;30.10;99.90;;;;;;5113130;27;19908;-65
2022/06/29 07:50:44;;;;;;;;;;;30.20;99.90;;;;;;5113071;28;19908;-65
2022/06/29 07:53:10;;;;;;;;;;;30.20;99.90;;;;;;5113281;28;20392;-66
2022/06/29 07:55:36;;;;;;;;;;;30.30;99.90;;;;;;5110626;28;19915;-65
2022/06/29 07:58:01;;;;;;;;;;;30.20;99.90;;;;;;5112860;28;19908;-64
2022/06/29 08:00:27;;;;;;;;;;;30.40;99.90;;;;;;5112792;28;19908;-65
2022/06/29 08:02:52;;;;;;;;;;;29.60;99.90;;;;;;5113032;28;19950;-65
2022/06/29 08:05:18;;;;;;;;;;;28.70;99.90;;;;;;5111691;28;19958;-64
2022/06/29 08:07:44;;;;;;;;;;;28.30;99.90;;;;;;5112484;28;19904;-63
2022/06/29 08:10:09;;;;;;;;;;;28.00;99.90;;;;;;5111776;28;19915;-63
2022/06/29 08:12:35;;;;;;;;;;;27.80;99.90;;;;;;5105613;28;19905;-63
2022/06/29 08:15:01;;;;;;;;;;;27.60;99.90;;;;;;5110528;28;19951;-63
2022/06/29 08:17:27;;;;;;;;;;;27.50;99.90;;;;;;5112540;28;20434;-63
2022/06/29 08:19:52;;;;;;;;;;;27.30;99.90;;;;;;5112201;28;19910;-63
2022/06/29 08:22:18;;;;;;;;;;;27.30;99.90;;;;;;5113002;28;19908;-62
2022/06/29 08:24:43;;;;;;;;;;;27.30;99.90;;;;;;5110439;28;19998;-63
2022/06/29 08:27:09;;;;;;;;;;;27.10;99.90;;;;;;5112175;28;20238;-63
2022/06/29 08:29:34;;;;;;;;;;;27.00;99.90;;;;;;5109412;28;19908;-63
2022/06/29 08:32:00;;;;;;;;;;;26.80;99.90;;;;;;5112076;28;20280;-63
2022/06/29 08:34:30;;;;;;;;;;;26.70;99.90;;;;;;5112318;28;19908;-63
2022/06/29 08:36:55;;;;;;;;;;;26.60;99.90;;;;;;5112530;28;20383;-65
2022/06/29 08:39:21;;;;;;;;;;;26.60;99.90;;;;;;5108188;28;19912;-62
2022/06/29 08:41:47;;;;;;;;;;;26.60;99.90;;;;;;5109497;28;20325;-63
2022/06/29 08:44:13;;;;;;;;;;;26.60;99.90;;;;;;5110296;28;20358;-64
2022/06/29 08:46:38;;;;;;;;;;;26.80;99.90;;;;;;5094065;28;19994;-64
2022/06/29 08:49:04;;;;;;;;;;;27.00;99.90;;;;;;5109552;28;19908;-64
2022/06/29 08:51:33;;;;;;;;;;;27.10;99.90;;;;;;5109369;28;20031;-64
2022/06/29 08:53:59;;;;;;;;;;;27.20;99.90;;;;;;5108509;28;19904;-64
2022/06/29 08:56:24;;;;;;;;;;;27.20;99.90;;;;;;5111510;28;20002;-64
2022/06/29 08:58:51;;;;;;;;;;;27.10;99.90;;;;;;5110354;28;19939;-64
2022/06/29 09:01:17;;;;;;;;;;;27.20;99.90;;;;;;5111388;28;20419;-65
2022/06/29 09:03:44;;;;;;;;;;;27.40;99.90;;;;;;5112596;28;19904;-64
2022/06/29 09:06:10;;;;;;;;;;;27.70;99.90;;;;;;5111307;28;19938;-64
2022/06/29 09:08:35;;;;;;;;;;;27.70;99.90;;;;;;5111946;28;19965;-63
2022/06/29 09:11:20;;;;;;;;;;;27.70;99.90;;;;;;5105445;28;19973;-63
2022/06/29 09:13:46;;;;;;;;;;;27.50;99.90;;;;;;5112498;28;20003;-64
2022/06/29 09:16:12;;;;;;;;;;;27.40;99.90;;;;;;5112802;28;19942;-64
2022/06/29 09:18:37;;;;;;;;;;;27.20;99.90;;;;;;5110470;28;19911;-64
2022/06/29 09:21:04;;;;;;;;;;;27.30;99.90;;;;;;5109495;28;19915;-63
2022/06/29 09:23:31;;;;;;;;;;;27.50;99.90;;;;;;5111573;28;19910;-63
2022/06/29 09:25:56;;;;;;;;;;;27.40;99.90;;;;;;5111658;28;20376;-63
2022/06/29 09:28:24;;;;;;;;;;;27.40;99.90;;;;;;5109944;28;19904;-63
2022/06/29 09:30:50;;;;;;;;;;;27.30;99.90;;;;;;5108190;28;19918;-63
2022/06/29 09:33:15;;;;;;;;;;;27.20;99.90;;;;;;5111213;28;19957;-63
2022/06/29 09:35:42;;;;;;;;;;;27.30;99.90;;;;;;5111281;28;19912;-62
2022/06/29 09:38:21;;;;;;;;;;;27.30;99.90;;;;;;5109871;28;19953;-63
2022/06/29 09:40:59;;;;;;;;;;;27.30;99.90;;;;;;5107264;28;19964;-63
2022/06/29 09:43:24;;;;;;;;;;;27.40;99.90;;;;;;5109287;28;19953;-63
2022/06/29 09:45:51;;;;;;;;;;;27.50;99.90;;;;;;5111150;28;19908;-62
2022/06/29 09:48:20;;;;;;;;;;;27.50;99.90;;;;;;5110971;28;19907;-62
2022/06/29 09:50:46;;;;;;;;;;;27.50;99.90;;;;;;5109066;28;19994;-62
2022/06/29 09:53:12;;;;;;;;;;;27.40;99.90;;;;;;5111111;28;19914;-62
2022/06/29 09:55:38;;;;;;;;;;;27.40;99.90;;;;;;5111216;28;19905;-62
2022/06/29 09:58:04;;;;;;;;;;;27.30;99.90;;;;;;5111411;28;20010;-62
2022/06/29 10:03:14;;;;;;;;;;;27.50;99.90;;;;;;5109402;28;19910;-64
2022/06/29 10:05:58;;;;;;;;;;;27.80;99.90;;;;;;5110831;28;20289;-62
2022/06/29 10:08:25;;;;;;;;;;;27.90;99.90;;;;;;5110896;28;20380;-62
2022/06/29 10:10:55;;;;;;;;;;;27.70;99.90;;;;;;5106602;28;19911;-61
2022/06/29 10:13:42;;;;;;;;;;;27.60;99.90;;;;;;5107464;28;20002;-62
2022/06/29 10:16:23;;;;;;;;;;;27.40;99.90;;;;;;5108250;28;19904;-64
2022/06/29 10:18:52;;;;;;;;;;;27.40;99.90;;;;;;5110432;28;19908;-64
2022/06/29 10:21:27;;;;;;;;;;;27.40;99.90;;;;;;5105952;28;19995;-64
2022/06/29 10:23:54;;;;;;;;;;;27.50;99.90;;;;;;5109358;28;19912;-63
2022/06/29 10:26:34;;;;;;;;;;;27.80;99.90;;;;;;5110919;28;20003;-60
2022/06/29 10:29:06;;;;;;;;;;;27.90;99.90;;;;;;5101899;28;19910;-63
2022/06/29 10:31:50;;;;;;;;;;;27.90;99.90;;;;;;5106951;28;19912;-63
2022/06/29 10:34:30;;;;;;;;;;;28.00;99.90;;;;;;5090426;28;19915;-64
2022/06/29 10:37:09;;;;;;;;;;;28.20;99.90;;;;;;5090351;28;20345;-63
2022/06/29 10:39:44;;;;;;;;;;;28.00;99.90;;;;;;5104960;28;19988;-63
2022/06/29 10:45:16;;;;;;;;;;;28.20;99.90;;;;;;5114661;28;19910;-62
2022/06/29 10:47:47;;;;;;;;;;;28.30;99.90;;;;;;5105765;28;20309;-64
2022/06/29 10:50:23;;;;;;;;;;;28.20;99.90;;;;;;5113000;28;20360;-64
2022/06/29 10:52:49;;;;;;;;;;;28.20;99.90;;;;;;5112349;28;20006;-64
2022/06/29 10:55:16;;;;;;;;;;;28.40;99.90;;;;;;5112306;27;19908;-63
2022/06/29 10:57:42;;;;;;;;;;;28.40;99.90;;;;;;5114611;28;19956;-63
2022/06/29 11:00:09;;;;;;;;;;;28.20;99.90;;;;;;5110341;28;20377;-63
2022/06/29 11:02:35;;;;;;;;;;;28.10;99.90;;;;;;5114105;28;19991;-62
2022/06/29 11:05:02;;;;;;;;;;;28.00;99.90;;;;;;5109938;28;19915;-61
2022/06/29 11:12:57;;;;;;;;;;;28.00;99.90;;;;;;5108882;28;19914;-71
2022/06/29 11:18:20;;;;;;;;;;;27.60;99.90;;;;;;5106722;28;19915;-71
2022/06/29 11:20:51;;;;;;;;;;;27.50;99.90;;;;;;5110350;28;19981;-70
2022/06/29 11:23:21;;;;;;;;;;;27.60;99.90;;;;;;5110910;28;19915;-71
2022/06/29 11:25:48;;;;;;;;;;;27.70;99.90;;;;;;5107822;28;20016;-71
2022/06/29 11:28:17;;;;;;;;;;;27.70;99.90;;;;;;5114162;28;19911;-70
2022/06/29 11:30:57;;;;;;;;;;;27.70;99.90;;;;;;5114343;28;20274;-70
2022/06/29 11:33:26;;;;;;;;;;;27.70;99.90;;;;;;5114409;28;19953;-70
2022/06/29 11:35:51;;;;;;;;;;;27.70;99.90;;;;;;5111432;28;20009;-70
2022/06/29 11:38:17;;;;;;;;;;;27.40;99.90;;;;;;5110139;28;19916;-70
2022/06/29 11:40:43;;;;;;;;;;;27.40;99.90;;;;;;5110265;28;19908;-69
2022/06/29 11:43:09;;;;;;;;;;;27.10;99.90;;;;;;5112075;28;20418;-69
2022/06/29 11:45:58;;;;;;;;;;;27.10;99.90;;;;;;5109979;28;19914;-69
2022/06/29 11:48:24;;;;;;;;;;;26.90;99.90;;;;;;5113125;28;19943;-68
2022/06/29 11:50:51;;;;;;;;;;;26.90;99.90;;;;;;5113930;28;20335;-71
2022/06/29 11:53:36;;;;;;;;;;;26.90;99.90;;;;;;5111594;28;19912;-69
2022/06/29 11:56:06;;;;;;;;;;;27.10;99.90;;;;;;5109321;28;19914;-70
2022/06/29 11:58:32;;;;;;;;;;;27.00;99.90;;;;;;5112580;28;19972;-70
2022/06/29 12:00:57;;;;;;;;;;;27.00;99.90;;;;;;5112175;28;19908;-69
2022/06/29 12:03:23;;;;;;;;;;;27.00;99.90;;;;;;5107133;28;20377;-69
2022/06/29 12:05:56;;;;;;;;;;;27.20;99.90;;;;;;5109025;28;20002;-68
2022/06/29 12:08:22;;;;;;;;;;;27.20;99.90;;;;;;5112981;28;19957;-68
2022/06/29 12:10:48;;;;;;;;;;;27.20;99.90;;;;;;5106891;28;19916;-70
2022/06/29 12:13:13;;;;;;;;;;;27.20;99.90;;;;;;5108781;28;19936;-69
2022/06/29 12:15:39;;;;;;;;;;;27.30;99.90;;;;;;5108468;28;20353;-70
2022/06/29 12:18:05;;;;;;;;;;;27.40;99.90;;;;;;5113417;28;19929;-70
2022/06/29 12:20:30;;;;;;;;;;;27.70;99.90;;;;;;5111089;28;20371;-69
2022/06/29 12:22:56;;;;;;;;;;;27.90;99.90;;;;;;5106460;28;19947;-70
2022/06/29 12:25:24;;;;;;;;;;;27.90;99.90;;;;;;5106847;28;19994;-71
2022/06/29 12:27:50;;;;;;;;;;;27.70;99.90;;;;;;5112811;28;19904;-71
2022/06/29 12:30:15;;;;;;;;;;;27.70;99.90;;;;;;5110143;28;20357;-69
2022/06/29 12:32:41;;;;;;;;;;;27.80;99.90;;;;;;5109567;28;19903;-70
2022/06/29 12:35:07;;;;;;;;;;;27.90;99.90;;;;;;5111890;28;19923;-69
2022/06/29 12:37:33;;;;;;;;;;;27.90;99.90;;;;;;5111666;28;19904;-70
2022/06/29 12:39:58;;;;;;;;;;;27.70;99.90;;;;;;5112865;28;19910;-68
2022/06/29 12:42:24;;;;;;;;;;;27.60;99.90;;;;;;5110479;28;20344;-70
2022/06/29 12:44:50;;;;;;;;;;;27.60;99.90;;;;;;5108457;28;19907;-71
2022/06/29 12:47:16;;;;;;;;;;;27.50;99.90;;;;;;5110740;28;20586;-69
2022/06/29 12:49:41;;;;;;;;;;;27.60;99.90;;;;;;5116436;28;19904;-68
2022/06/29 12:52:07;;;;;;;;;;;28.00;99.90;;;;;;5114012;27;19950;-71
2022/06/29 12:54:33;;;;;;;;;;;28.50;99.90;;;;;;5118877;27;19933;-71
2022/06/29 12:56:59;;;;;;;;;;;28.40;99.90;;;;;;5105739;28;20278;-72
2022/06/29 12:59:25;;;;;;;;;;;28.60;99.90;;;;;;5106349;28;19912;-72
2022/06/29 13:01:53;;;;;;;;;;;28.10;99.90;;;;;;5109025;28;19904;-71
2022/06/29 13:04:19;;;;;;;;;;;27.90;99.90;;;;;;5111289;28;19912;-71
2022/06/29 13:06:45;;;;;;;;;;;27.80;99.90;;;;;;5109821;28;20262;-69
2022/06/29 13:09:11;;;;;;;;;;;27.50;99.90;;;;;;5109281;28;19934;-67
2022/06/29 13:11:37;;;;;;;;;;;27.60;99.90;;;;;;5110502;28;19915;-68
2022/06/29 13:14:02;;;;;;;;;;;27.70;99.90;;;;;;5106410;27;19912;-69
2022/06/29 13:16:28;;;;;;;;;;;27.50;99.90;;;;;;5112010;28;19904;-70
2022/06/29 13:18:53;;;;;;;;;;;27.50;99.90;;;;;;5112151;28;19998;-69
2022/06/29 13:21:20;;;;;;;;;;;27.70;99.90;;;;;;5117947;27;19956;-68
2022/06/29 13:23:45;;;;;;;;;;;28.10;99.90;;;;;;5131386;27;19903;-68
2022/06/29 13:26:11;;;;;;;;;;;28.30;99.90;;;;;;5131111;27;19990;-70
2022/06/29 13:28:42;;;;;;;;;;;28.40;99.90;;;;;;5105775;28;19919;-68
2022/06/29 13:31:11;;;;;;;;;;;28.10;99.90;;;;;;5111421;28;19908;-68
2022/06/29 13:33:37;;;;;;;;;;;28.20;99.90;;;;;;5110125;28;19915;-68
2022/06/29 13:36:03;;;;;;;;;;;28.10;99.90;;;;;;5108988;27;19911;-70
2022/06/29 13:38:29;;;;;;;;;;;28.30;99.90;;;;;;5111889;28;20416;-68
2022/06/29 13:40:54;;;;;;;;;;;28.10;99.90;;;;;;5100537;28;19911;-69
2022/06/29 13:43:20;;;;;;;;;;;28.20;99.90;;;;;;5096051;27;19965;-70
2022/06/29 13:45:46;;;;;;;;;;;28.30;99.90;;;;;;5103525;28;19915;-70
2022/06/29 13:48:12;;;;;;;;;;;28.30;99.90;;;;;;5108160;28;20257;-69
2022/06/29 13:50:38;;;;;;;;;;;28.20;99.90;;;;;;5110423;28;19907;-68
2022/06/29 13:53:03;;;;;;;;;;;27.80;99.90;;;;;;5107583;28;20361;-68
2022/06/29 13:55:29;;;;;;;;;;;27.90;99.90;;;;;;5102035;28;20423;-69
2022/06/29 13:57:55;;;;;;;;;;;28.10;99.90;;;;;;5105086;28;19998;-69
2022/06/29 14:00:21;;;;;;;;;;;28.20;99.90;;;;;;5107471;28;20006;-69
2022/06/29 14:02:47;;;;;;;;;;;27.90;99.90;;;;;;5103040;28;20376;-69
2022/06/29 14:05:13;;;;;;;;;;;27.50;99.90;;;;;;5104301;28;19907;-68
2022/06/29 14:07:38;;;;;;;;;;;27.40;99.90;;;;;;5103878;28;20312;-68
2022/06/29 14:10:04;;;;;;;;;;;27.50;99.90;;;;;;5110829;28;19908;-69
2022/06/29 14:12:30;;;;;;;;;;;27.70;99.90;;;;;;5109864;28;19950;-69
2022/06/29 14:14:56;;;;;;;;;;;27.70;99.90;;;;;;5105968;28;20415;-69
2022/06/29 14:17:21;;;;;;;;;;;27.90;99.90;;;;;;5111033;28;20261;-69
2022/06/29 14:19:47;;;;;;;;;;;27.80;99.90;;;;;;5114521;28;20278;-68
2022/06/29 14:22:13;;;;;;;;;;;27.90;99.90;;;;;;5116469;28;19972;-70
2022/06/29 14:24:39;;;;;;;;;;;27.90;99.90;;;;;;5114350;28;19912;-69
2022/06/29 14:27:04;;;;;;;;;;;27.80;99.90;;;;;;5115070;28;19921;-69
2022/06/29 14:29:30;;;;;;;;;;;28.00;99.90;;;;;;5107340;28;19908;-70
2022/06/29 14:31:57;;;;;;;;;;;28.20;99.90;;;;;;5111760;28;20002;-69
2022/06/29 14:34:23;;;;;;;;;;;28.30;99.90;;;;;;5113187;28;19911;-69
2022/06/29 14:36:48;;;;;;;;;;;28.50;99.90;;;;;;5112984;28;19908;-70
2022/06/29 14:39:14;;;;;;;;;;;28.50;99.90;;;;;;5111713;28;19903;-70